Time;durP1;ratioP1;P1;durP2;ratioP2;P2;SDS_P1;SDS_P2;PMS_P1;PMS_P2;Temp;Humidity;BMP_temperature;BMP_pressure;BME280_temperature;BME280_humidity;BME280_pressure;Samples;Min_cycle;Max_cycle;Signal;HPM_P1;HPM_P2
2023/10/06 00:01:40;;;;;;;10.07;5.43;;;;;;;;;;5110119;28;20059;-76
2023/10/06 00:04:07;;;;;;;14.75;5.82;;;;;;;;;;5110382;28;20409;-75
2023/10/06 00:06:37;;;;;;;12.57;5.75;;;;;;;;;;5084668;28;20119;-75
2023/10/06 00:09:06;;;;;;;12.55;5.80;;;;;;;;;;5113176;28;20404;-75
2023/10/06 00:11:32;;;;;;;16.88;6.10;;;;;;;;;;5092982;28;20062;-77
2023/10/06 00:14:01;;;;;;;;;;;;;;;;;;5076674;28;20044;-76
2023/10/06 00:16:38;;;;;;;14.43;6.28;;;;;;;;;;5076102;28;19920;-75
2023/10/06 00:19:19;;;;;;;18.05;6.30;;;;;;;;;;5080311;28;20540;-75
2023/10/06 00:21:47;;;;;;;15.35;6.72;;;;;;;;;;5113468;28;20055;-75
2023/10/06 00:24:14;;;;;;;15.32;7.05;;;;;;;;;;5112799;28;20541;-75
2023/10/06 00:26:42;;;;;;;17.10;7.13;;;;;;;;;;5091263;28;20058;-76
2023/10/06 00:29:18;;;;;;;15.93;6.82;;;;;;;;;;5074907;28;20127;-75
2023/10/06 00:31:47;;;;;;;16.83;6.93;;;;;;;;;;5093541;28;20052;-75
2023/10/06 00:34:19;;;;;;;17.95;6.78;;;;;;;;;;5093007;28;20083;-77
2023/10/06 00:36:51;;;;;;;14.50;6.82;;;;;;;;;;5083554;28;20040;-75
2023/10/06 00:39:22;;;;;;;16.45;7.35;;;;;;;;;;5092754;28;20059;-75
2023/10/06 00:41:48;;;;;;;18.33;7.82;;;;;;;;;;5075998;28;20493;-76
2023/10/06 00:44:15;;;;;;;15.27;7.28;;;;;;;;;;5093471;28;20036;-76
2023/10/06 00:46:43;;;;;;;;;;;;;;;;;;5110249;28;20072;-76
2023/10/06 00:49:09;;;;;;;13.93;6.65;;;;;;;;;;5109218;28;19923;-74
2023/10/06 00:51:35;;;;;;;;;;;;;;;;;;5102385;28;20125;-75
2023/10/06 00:54:01;;;;;;;15.10;6.82;;;;;;;;;;5075304;28;20022;-75
2023/10/06 00:56:28;;;;;;;14.45;8.43;;;;;;;;;;5074911;28;20104;-76
2023/10/06 00:58:55;;;;;;;17.35;6.70;;;;;;;;;;5092256;28;20074;-75
2023/10/06 01:01:22;;;;;;;16.15;7.55;;;;;;;;;;5092781;28;20048;-79
2023/10/06 01:03:54;;;;;;;17.45;6.90;;;;;;;;;;5092819;28;20508;-75
2023/10/06 01:06:23;;;;;;;21.13;7.00;;;;;;;;;;5084306;28;20051;-74
2023/10/06 01:08:55;;;;;;;18.50;7.10;;;;;;;;;;5106465;28;20048;-76
2023/10/06 01:11:26;;;;;;;17.63;7.05;;;;;;;;;;5091708;28;20489;-77
2023/10/06 01:13:55;;;;;;;16.30;6.90;;;;;;;;;;5076024;28;20093;-76
2023/10/06 01:16:26;;;;;;;15.82;6.60;;;;;;;;;;5092446;28;20048;-75
2023/10/06 01:19:01;;;;;;;16.15;6.70;;;;;;;;;;5091719;28;20052;-78
2023/10/06 01:21:30;;;;;;;13.07;6.55;;;;;;;;;;5075223;28;20056;-75
2023/10/06 01:23:58;;;;;;;14.70;6.30;;;;;;;;;;5112068;28;20047;-75
2023/10/06 01:26:24;;;;;;;19.13;6.95;;;;;;;;;;5094915;28;20058;-80
2023/10/06 01:28:51;;;;;;;12.73;6.53;;;;;;;;;;5095161;28;20480;-76
2023/10/06 01:31:20;;;;;;;15.57;7.18;;;;;;;;;;5112319;28;20047;-74
2023/10/06 01:33:46;;;;;;;13.88;5.90;;;;;;;;;;5111933;28;20521;-75
2023/10/06 01:36:21;;;;;;;17.75;7.38;;;;;;;;;;5112323;28;20046;-75
2023/10/06 01:38:48;;;;;;;17.30;6.63;;;;;;;;;;5093379;28;20042;-76
2023/10/06 01:41:14;;;;;;;14.32;6.10;;;;;;;;;;5110223;28;20043;-77
2023/10/06 01:43:40;;;;;;;;;;;;;;;;;;5094801;28;20095;-75
2023/10/06 01:46:12;;;;;;;15.45;6.22;;;;;;;;;;5112033;28;20013;-76
2023/10/06 01:48:38;;;;;;;14.60;6.10;;;;;;;;;;5094231;28;20059;-75
2023/10/06 01:51:09;;;;;;;;;;;;;;;;;;5102744;28;20474;-75
2023/10/06 01:53:38;;;;;;;12.50;6.90;;;;;;;;;;5090511;28;20434;-76
2023/10/06 01:56:08;;;;;;;14.52;6.78;;;;;;;;;;5074288;28;20052;-76
2023/10/06 01:58:35;;;;;;;13.63;5.65;;;;;;;;;;5090645;28;20044;-76
2023/10/06 02:01:02;;;;;;;13.68;6.38;;;;;;;;;;5084096;28;20036;-76
2023/10/06 02:03:28;;;;;;;15.60;6.65;;;;;;;;;;5074850;28;20553;-80
2023/10/06 02:05:59;;;;;;;;;;;;;;;;;;5079513;28;20043;-75
2023/10/06 02:08:26;;;;;;;17.30;6.55;;;;;;;;;;5110917;28;19935;-75
2023/10/06 02:10:54;;;;;;;14.48;6.13;;;;;;;;;;5110627;28;20090;-75
2023/10/06 02:13:21;;;;;;;18.23;6.78;;;;;;;;;;5108158;28;20055;-75
2023/10/06 02:15:58;;;;;;;18.73;6.68;;;;;;;;;;5074272;28;20378;-74
2023/10/06 02:18:35;;;;;;;20.02;7.20;;;;;;;;;;5091277;28;20091;-78
2023/10/06 02:21:04;;;;;;;15.05;6.70;;;;;;;;;;5096988;28;20088;-77
2023/10/06 02:23:30;;;;;;;16.40;7.15;;;;;;;;;;5110796;28;20161;-80
2023/10/06 02:25:56;;;;;;;;;;;;;;;;;;5073066;28;20051;-75
2023/10/06 02:28:23;;;;;;;15.63;7.15;;;;;;;;;;5090855;28;20015;-75
2023/10/06 02:30:51;;;;;;;15.68;8.05;;;;;;;;;;5093387;28;20043;-75
2023/10/06 02:33:17;;;;;;;15.15;7.43;;;;;;;;;;5091240;28;20056;-75
2023/10/06 02:35:46;;;;;;;15.45;8.02;;;;;;;;;;5089946;28;20481;-75
2023/10/06 02:38:12;;;;;;;20.67;7.88;;;;;;;;;;5074030;28;20046;-74
2023/10/06 02:40:48;;;;;;;;;;;;;;;;;;5089212;28;20052;-76
2023/10/06 02:43:20;;;;;;;12.73;7.75;;;;;;;;;;5072915;28;19924;-75
2023/10/06 02:45:46;;;;;;;19.05;7.97;;;;;;;;;;5073750;28;20052;-75
2023/10/06 02:48:17;;;;;;;;;;;;;;;;;;5076776;27;20051;-75
2023/10/06 02:50:44;;;;;;;19.50;8.13;;;;;;;;;;5093119;28;19966;-75
2023/10/06 02:53:13;;;;;;;19.30;8.18;;;;;;;;;;5114572;28;20050;-75
2023/10/06 02:55:43;;;;;;;18.40;7.65;;;;;;;;;;5103942;28;20500;-77
2023/10/06 02:58:10;;;;;;;19.02;7.47;;;;;;;;;;5110655;28;20146;-75
2023/10/06 03:00:36;;;;;;;16.20;7.72;;;;;;;;;;5130590;27;20050;-80
2023/10/06 03:03:12;;;;;;;15.27;7.20;;;;;;;;;;5114181;27;20054;-76
2023/10/06 03:05:49;;;;;;;16.20;7.82;;;;;;;;;;5096888;28;20158;-76
2023/10/06 03:08:18;;;;;;;18.98;7.60;;;;;;;;;;5114452;28;20113;-75
2023/10/06 03:10:44;;;;;;;21.02;7.60;;;;;;;;;;5111292;28;20043;-76
2023/10/06 03:13:13;;;;;;;15.20;7.57;;;;;;;;;;5096671;28;20047;-75
2023/10/06 03:15:45;;;;;;;17.23;7.60;;;;;;;;;;5113498;28;20054;-74
2023/10/06 03:18:15;;;;;;;14.50;7.05;;;;;;;;;;5114161;28;20043;-76
2023/10/06 03:20:48;;;;;;;19.90;6.97;;;;;;;;;;5093121;28;20066;-75
2023/10/06 03:23:32;;;;;;;18.20;7.00;;;;;;;;;;5093898;28;20082;-77
2023/10/06 03:25:58;;;;;;;15.93;7.13;;;;;;;;;;5109476;28;20047;-75
2023/10/06 03:28:37;;;;;;;13.93;6.93;;;;;;;;;;5114035;28;20046;-75
2023/10/06 03:31:21;;;;;;;20.15;6.88;;;;;;;;;;5097397;28;20049;-77
2023/10/06 03:33:54;;;;;;;21.35;6.72;;;;;;;;;;5082435;28;20070;-75
2023/10/06 03:36:45;;;;;;;15.55;6.38;;;;;;;;;;5108605;28;20063;-75
2023/10/06 03:39:21;;;;;;;18.13;6.60;;;;;;;;;;5093828;28;20105;-76
2023/10/06 03:41:52;;;;;;;15.82;6.25;;;;;;;;;;5077043;28;20446;-77
2023/10/06 03:44:26;;;;;;;16.45;6.72;;;;;;;;;;5077827;28;20393;-76
2023/10/06 03:46:52;;;;;;;15.25;6.40;;;;;;;;;;5076712;28;20047;-75
2023/10/06 03:49:18;;;;;;;13.70;6.53;;;;;;;;;;5093002;28;20473;-76
2023/10/06 03:51:44;;;;;;;;;;;;;;;;;;5076021;28;20142;-76
2023/10/06 03:54:10;;;;;;;16.63;6.93;;;;;;;;;;5093983;28;19974;-75
2023/10/06 03:56:36;;;;;;;16.38;6.40;;;;;;;;;;5095375;28;20051;-75
2023/10/06 03:59:12;;;;;;;;;;;;;;;;;;5096396;28;20053;-75
2023/10/06 04:01:38;;;;;;;15.02;5.78;;;;;;;;;;5112820;28;19919;-75
2023/10/06 04:04:05;;;;;;;15.18;6.93;;;;;;;;;;5116708;27;20043;-75
2023/10/06 04:06:35;;;;;;;17.15;6.85;;;;;;;;;;5096563;28;20063;-76
2023/10/06 04:09:01;;;;;;;17.70;6.28;;;;;;;;;;5078218;28;20039;-76
2023/10/06 04:11:31;;;;;;;18.48;6.68;;;;;;;;;;5107709;27;20039;-75
2023/10/06 04:13:58;;;;;;;14.60;6.63;;;;;;;;;;5099696;27;20138;-75
2023/10/06 04:16:25;;;;;;;16.02;6.22;;;;;;;;;;5112911;28;20047;-76
2023/10/06 04:18:51;;;;;;;18.67;6.75;;;;;;;;;;5106863;28;20055;-75
2023/10/06 04:21:17;;;;;;;;;;;;;;;;;;5085026;28;20090;-75
2023/10/06 04:23:43;;;;;;;17.67;6.97;;;;;;;;;;5113290;28;19963;-80
2023/10/06 04:26:09;;;;;;;;;;;;;;;;;;5080176;28;20063;-75
2023/10/06 04:28:36;;;;;;;16.27;6.97;;;;;;;;;;5113547;28;19971;-75
2023/10/06 04:31:02;;;;;;;18.50;6.93;;;;;;;;;;5085153;28;20040;-75
2023/10/06 04:33:31;;;;;;;;;;;;;;;;;;5097619;28;20176;-76
2023/10/06 04:36:01;;;;;;;13.38;6.85;;;;;;;;;;5085070;27;19920;-75
2023/10/06 04:38:29;;;;;;;18.23;6.50;;;;;;;;;;5115433;27;20442;-75
2023/10/06 04:40:56;;;;;;;17.33;6.93;;;;;;;;;;5095148;28;20056;-78
2023/10/06 04:43:23;;;;;;;16.50;7.38;;;;;;;;;;5099931;27;20388;-75
2023/10/06 04:45:50;;;;;;;21.00;7.82;;;;;;;;;;5110070;28;20047;-76
2023/10/06 04:48:18;;;;;;;17.48;7.15;;;;;;;;;;5079404;28;20070;-75
2023/10/06 04:50:45;;;;;;;17.70;7.35;;;;;;;;;;5096035;28;20108;-80
2023/10/06 04:53:12;;;;;;;17.02;6.75;;;;;;;;;;5133393;27;20039;-78
2023/10/06 04:55:39;;;;;;;17.02;7.10;;;;;;;;;;5098871;27;20057;-75
2023/10/06 04:58:15;;;;;;;17.17;7.10;;;;;;;;;;5104198;28;20239;-75
2023/10/06 05:00:41;;;;;;;19.52;7.47;;;;;;;;;;5112500;28;20055;-75
2023/10/06 05:03:10;;;;;;;15.38;7.32;;;;;;;;;;5113327;28;20043;-75
2023/10/06 05:05:42;;;;;;;18.23;7.70;;;;;;;;;;5114720;27;20047;-75
2023/10/06 05:08:14;;;;;;;17.80;7.57;;;;;;;;;;5130287;27;20130;-75
2023/10/06 05:10:41;;;;;;;19.90;7.63;;;;;;;;;;5129956;27;20047;-77
2023/10/06 05:13:07;;;;;;;16.30;7.25;;;;;;;;;;5129996;27;20050;-75
2023/10/06 05:15:34;;;;;;;18.40;8.02;;;;;;;;;;5129594;27;20054;-75
2023/10/06 05:18:02;;;;;;;17.58;7.75;;;;;;;;;;5117915;27;20127;-78
2023/10/06 05:20:32;;;;;;;22.58;7.85;;;;;;;;;;5096588;27;20079;-77
2023/10/06 05:23:01;;;;;;;20.27;7.57;;;;;;;;;;5098010;27;20137;-75
2023/10/06 05:25:29;;;;;;;21.25;7.65;;;;;;;;;;5098021;27;20058;-77
2023/10/06 05:27:59;;;;;;;19.42;8.30;;;;;;;;;;5091830;27;20054;-75
2023/10/06 05:30:25;;;;;;;20.50;8.05;;;;;;;;;;5110328;27;20054;-76
2023/10/06 05:32:51;;;;;;;;;;;;;;;;;;5116505;27;20039;-77
2023/10/06 05:35:20;;;;;;;20.42;7.82;;;;;;;;;;5114629;27;19923;-75
2023/10/06 05:37:46;;;;;;;17.20;7.65;;;;;;;;;;5104388;27;20113;-75
2023/10/06 05:40:15;;;;;;;22.05;8.05;;;;;;;;;;5123323;27;20061;-76
2023/10/06 05:42:42;;;;;;;19.88;7.78;;;;;;;;;;5102576;27;20075;-77
2023/10/06 05:45:20;;;;;;;20.33;8.90;;;;;;;;;;5098511;27;20092;-76
2023/10/06 05:47:47;;;;;;;17.90;7.57;;;;;;;;;;5106229;27;20488;-80
2023/10/06 05:50:27;;;;;;;21.52;8.10;;;;;;;;;;5114014;27;20055;-76
2023/10/06 05:53:04;;;;;;;18.52;7.63;;;;;;;;;;5113693;27;20055;-81
2023/10/06 05:55:30;;;;;;;16.10;8.27;;;;;;;;;;5113503;27;20143;-75
2023/10/06 05:57:58;;;;;;;21.10;8.20;;;;;;;;;;5114391;27;20062;-76
2023/10/06 06:00:29;;;;;;;21.92;7.43;;;;;;;;;;5115585;27;20488;-75
2023/10/06 06:02:58;;;;;;;17.13;6.88;;;;;;;;;;5113650;27;20385;-75
2023/10/06 06:05:26;;;;;;;19.40;7.28;;;;;;;;;;5097549;27;20126;-75
2023/10/06 06:07:52;;;;;;;15.02;6.57;;;;;;;;;;5106760;27;20039;-76
2023/10/06 06:10:18;;;;;;;16.80;7.32;;;;;;;;;;5112965;27;20046;-75
2023/10/06 06:12:45;;;;;;;23.20;7.05;;;;;;;;;;5105420;27;20079;-75
2023/10/06 06:15:12;;;;;;;18.27;6.57;;;;;;;;;;5116735;27;20043;-75
2023/10/06 06:17:41;;;;;;;18.50;6.63;;;;;;;;;;5115083;27;20039;-75
2023/10/06 06:20:09;;;;;;;20.25;7.15;;;;;;;;;;5114422;27;20051;-75
2023/10/06 06:22:36;;;;;;;15.32;6.93;;;;;;;;;;5115105;27;20054;-75
2023/10/06 06:25:05;;;;;;;16.13;6.53;;;;;;;;;;5106212;28;20048;-75
2023/10/06 06:27:32;;;;;;;16.73;7.00;;;;;;;;;;5102365;28;20055;-76
2023/10/06 06:29:58;;;;;;;17.00;6.18;;;;;;;;;;5112978;27;20043;-76
2023/10/06 06:32:25;;;;;;;17.27;6.25;;;;;;;;;;5115153;27;20122;-75
2023/10/06 06:34:51;;;;;;;15.85;6.35;;;;;;;;;;5114091;27;20039;-75
2023/10/06 06:37:17;;;;;;;18.27;5.80;;;;;;;;;;5114193;27;20492;-76
2023/10/06 06:39:44;;;;;;;;;;;;;;;;;;5097211;27;20122;-75
2023/10/06 06:42:14;;;;;;;16.25;6.07;;;;;;;;;;5113646;27;19930;-75
2023/10/06 06:44:47;;;;;;;20.27;5.90;;;;;;;;;;5114776;27;20039;-77
2023/10/06 06:47:16;;;;;;;15.45;5.88;;;;;;;;;;5111291;27;20105;-75
2023/10/06 06:49:43;;;;;;;16.83;5.80;;;;;;;;;;5111607;27;20059;-76
2023/10/06 06:52:09;;;;;;;21.17;6.15;;;;;;;;;;5114174;27;20083;-75
2023/10/06 06:54:38;;;;;;;16.35;5.95;;;;;;;;;;5080413;27;20050;-76
2023/10/06 06:57:04;;;;;;;14.82;5.95;;;;;;;;;;5095640;27;20051;-76
2023/10/06 06:59:31;;;;;;;11.98;5.68;;;;;;;;;;5096641;27;20392;-76
2023/10/06 07:02:00;;;;;;;14.98;5.97;;;;;;;;;;5096453;28;20078;-76
2023/10/06 07:04:29;;;;;;;19.80;5.82;;;;;;;;;;5113238;27;20051;-75
2023/10/06 07:06:55;;;;;;;14.27;6.00;;;;;;;;;;5075233;28;20099;-76
2023/10/06 07:09:22;;;;;;;17.60;6.32;;;;;;;;;;5110687;28;20042;-76
2023/10/06 07:11:49;;;;;;;14.65;6.15;;;;;;;;;;5079949;28;20047;-76
2023/10/06 07:14:15;;;;;;;16.25;6.03;;;;;;;;;;5097112;28;20043;-76
2023/10/06 07:16:43;;;;;;;;;;;;;;;;;;5110221;28;20051;-75
2023/10/06 07:19:09;;;;;;;;;;;;;;;;;;5094245;28;20363;-76
2023/10/06 07:21:36;;;;;;;19.55;6.25;;;;;;;;;;5114560;28;19923;-75
2023/10/06 07:24:03;;;;;;;19.45;6.30;;;;;;;;;;5079814;28;20043;-81
2023/10/06 07:26:31;;;;;;;17.33;5.45;;;;;;;;;;5112646;28;22932;-77
2023/10/06 07:28:59;;;;;;;14.45;5.72;;;;;;;;;;5096888;28;20088;-75
2023/10/06 07:31:25;;;;;;;13.48;5.88;;;;;;;;;;5096978;28;20096;-76
2023/10/06 07:33:52;;;;;;;15.13;5.70;;;;;;;;;;5097603;28;20043;-75
2023/10/06 07:36:19;;;;;;;12.85;5.57;;;;;;;;;;5099318;28;20130;-76
2023/10/06 07:38:45;;;;;;;17.00;5.68;;;;;;;;;;5100474;27;20406;-76
2023/10/06 07:41:25;;;;;;;13.20;5.95;;;;;;;;;;5079931;28;20079;-76
2023/10/06 07:43:51;;;;;;;16.83;6.28;;;;;;;;;;5097612;28;20043;-76
2023/10/06 07:46:17;;;;;;;16.27;5.85;;;;;;;;;;5082392;28;20071;-76
2023/10/06 07:48:47;;;;;;;13.43;5.55;;;;;;;;;;5097475;28;20523;-75
2023/10/06 07:51:13;;;;;;;15.43;5.60;;;;;;;;;;5103891;27;20050;-75
2023/10/06 07:53:39;;;;;;;15.52;6.00;;;;;;;;;;5097010;28;20044;-75
2023/10/06 07:56:06;;;;;;;21.75;6.43;;;;;;;;;;5079871;28;20054;-76
2023/10/06 07:58:38;;;;;;;19.90;6.03;;;;;;;;;;5080224;28;20048;-75
2023/10/06 08:01:08;;;;;;;22.25;6.00;;;;;;;;;;5097037;28;20540;-80
2023/10/06 08:03:38;;;;;;;13.30;5.72;;;;;;;;;;5097668;28;20040;-74
2023/10/06 08:06:05;;;;;;;16.65;5.53;;;;;;;;;;5113751;27;20046;-79
2023/10/06 08:08:32;;;;;;;11.13;5.15;;;;;;;;;;5114573;27;20133;-76
2023/10/06 08:11:01;;;;;;;14.70;5.35;;;;;;;;;;5096581;28;20051;-76
2023/10/06 08:13:28;;;;;;;21.73;5.55;;;;;;;;;;5096482;28;20054;-75
2023/10/06 08:15:54;;;;;;;19.08;5.90;;;;;;;;;;5086925;27;20051;-77
2023/10/06 08:18:20;;;;;;;11.98;5.70;;;;;;;;;;5100307;27;20047;-75
2023/10/06 08:20:46;;;;;;;;;;;;;;;;;;5101440;27;20046;-75
2023/10/06 08:23:15;;;;;;;16.55;5.45;;;;;;;;;;5116954;27;19919;-75
2023/10/06 08:25:42;;;;;;;13.45;5.20;;;;;;;;;;5099746;27;20054;-75
2023/10/06 08:28:08;;;;;;;15.98;5.25;;;;;;;;;;5117003;27;20054;-80
2023/10/06 08:30:34;;;;;;;14.18;5.75;;;;;;;;;;5117620;27;20180;-75
2023/10/06 08:33:02;;;;;;;15.00;5.82;;;;;;;;;;5097017;27;20369;-75
2023/10/06 08:35:28;;;;;;;15.90;6.65;;;;;;;;;;5099747;27;20242;-76
2023/10/06 08:37:58;;;;;;;;;;;;;;;;;;5097620;28;20070;-76
2023/10/06 08:40:26;;;;;;;17.02;6.38;;;;;;;;;;5095629;28;20325;-75
2023/10/06 08:42:56;;;;;;;20.85;6.43;;;;;;;;;;5080081;28;20136;-75
2023/10/06 08:45:22;;;;;;;15.77;6.07;;;;;;;;;;5079703;27;20047;-76
2023/10/06 08:47:50;;;;;;;19.38;7.43;;;;;;;;;;5117164;27;20042;-75
2023/10/06 08:50:22;;;;;;;18.40;5.93;;;;;;;;;;5115050;27;20408;-76
2023/10/06 08:52:50;;;;;;;14.30;6.50;;;;;;;;;;5117028;27;20035;-75
2023/10/06 08:55:17;;;;;;;13.18;5.82;;;;;;;;;;5112695;27;20446;-76
2023/10/06 08:57:45;;;;;;;16.80;6.68;;;;;;;;;;5098662;27;20074;-76
2023/10/06 09:00:13;;;;;;;17.45;7.00;;;;;;;;;;5116797;27;20078;-80
2023/10/06 09:02:39;;;;;;;15.55;7.25;;;;;;;;;;5116745;27;20459;-76
2023/10/06 09:05:09;;;;;;;16.58;7.05;;;;;;;;;;5116561;27;20388;-76
2023/10/06 09:07:35;;;;;;;21.00;7.28;;;;;;;;;;5099731;27;20047;-75
2023/10/06 09:10:17;;;;;;;18.17;6.72;;;;;;;;;;5082078;27;20039;-75
2023/10/06 09:12:43;;;;;;;19.17;7.28;;;;;;;;;;5116639;27;20051;-75
2023/10/06 09:15:09;;;;;;;;;;;;;;;;;;5112109;28;20058;-75
2023/10/06 09:17:36;;;;;;;15.05;7.20;;;;;;;;;;5113139;28;19924;-76
2023/10/06 09:20:02;;;;;;;18.02;7.35;;;;;;;;;;5096400;28;20087;-76
2023/10/06 09:22:29;;;;;;;22.17;7.82;;;;;;;;;;5095324;28;20489;-76
2023/10/06 09:24:59;;;;;;;14.10;7.40;;;;;;;;;;5094272;28;20044;-76
2023/10/06 09:27:25;;;;;;;18.55;6.80;;;;;;;;;;5094794;28;20087;-75
2023/10/06 09:29:51;;;;;;;;;;;;;;;;;;5096492;28;20092;-75
2023/10/06 09:32:21;;;;;;;16.27;6.75;;;;;;;;;;5078805;28;20006;-75
2023/10/06 09:34:50;;;;;;;18.35;7.18;;;;;;;;;;5097437;27;20044;-75
2023/10/06 09:37:23;;;;;;;20.40;7.50;;;;;;;;;;5103647;28;20057;-77
2023/10/06 09:40:10;;;;;;;15.43;6.65;;;;;;;;;;5094834;28;20039;-75
2023/10/06 09:42:36;;;;;;;;;;;;;;;;;;5095346;28;20062;-75
2023/10/06 09:45:07;;;;;;;13.15;5.75;;;;;;;;;;5095858;28;20014;-75
2023/10/06 09:47:38;;;;;;;16.45;6.38;;;;;;;;;;5095353;28;20139;-75
2023/10/06 09:50:06;;;;;;;17.63;6.07;;;;;;;;;;5095058;28;20055;-76
2023/10/06 09:52:34;;;;;;;14.55;6.32;;;;;;;;;;5078207;28;20051;-75
2023/10/06 09:55:04;;;;;;;20.27;6.78;;;;;;;;;;5109645;27;20048;-75
2023/10/06 09:57:33;;;;;;;20.15;6.45;;;;;;;;;;5097679;27;20047;-78
2023/10/06 10:00:00;;;;;;;18.75;5.78;;;;;;;;;;5098242;27;20042;-75
2023/10/06 10:02:29;;;;;;;11.50;5.28;;;;;;;;;;5098428;27;20134;-75
2023/10/06 10:04:59;;;;;;;11.48;5.57;;;;;;;;;;5095229;28;20192;-75
2023/10/06 10:07:26;;;;;;;17.73;5.85;;;;;;;;;;5094381;28;20200;-76
2023/10/06 10:09:52;;;;;;;14.10;4.72;;;;;;;;;;5080122;28;20047;-73
2023/10/06 10:12:43;;;;;;;15.20;4.82;;;;;;;;;;5097148;27;20142;-78
2023/10/06 10:15:21;;;;;;;12.27;5.05;;;;;;;;;;5115821;27;20062;-75
2023/10/06 10:17:47;;;;;;;12.45;5.00;;;;;;;;;;5096438;27;20047;-76
2023/10/06 10:20:13;;;;;;;;;;;;;;;;;;5115777;27;20039;-75
2023/10/06 10:22:42;;;;;;;12.55;4.65;;;;;;;;;;5114923;27;19930;-76
2023/10/06 10:25:09;;;;;;;14.60;4.80;;;;;;;;;;5115508;27;20035;-74
2023/10/06 10:27:37;;;;;;;12.95;4.60;;;;;;;;;;5094218;28;20044;-75
2023/10/06 10:30:10;;;;;;;11.60;4.43;;;;;;;;;;5084092;27;20125;-77
2023/10/06 10:32:41;;;;;;;10.02;4.00;;;;;;;;;;5101303;27;20043;-75
2023/10/06 10:35:13;;;;;;;15.35;4.38;;;;;;;;;;5097923;27;20149;-75
2023/10/06 10:37:57;;;;;;;11.80;4.57;;;;;;;;;;5102159;27;20842;-75
2023/10/06 10:40:24;;;;;;;11.60;4.70;;;;;;;;;;5113634;27;20061;-76
2023/10/06 10:42:55;;;;;;;12.50;4.82;;;;;;;;;;5080805;27;20046;-75
2023/10/06 10:45:31;;;;;;;13.02;4.60;;;;;;;;;;5108667;28;20396;-82
2023/10/06 10:47:58;;;;;;;12.97;4.33;;;;;;;;;;5114654;27;20413;-75
2023/10/06 10:50:48;;;;;;;12.82;4.65;;;;;;;;;;5113424;27;20043;-75
2023/10/06 10:53:18;;;;;;;14.95;4.43;;;;;;;;;;5103616;27;20126;-76
2023/10/06 10:55:45;;;;;;;14.57;4.68;;;;;;;;;;5113500;27;21542;-77
2023/10/06 10:58:11;;;;;;;13.07;4.25;;;;;;;;;;5116313;27;20426;-75
2023/10/06 11:00:40;;;;;;;;;;;;;;;;;;5102301;27;20370;-75
2023/10/06 11:03:06;;;;;;;12.30;4.50;;;;;;;;;;5093927;27;19931;-75
2023/10/06 11:05:32;;;;;;;11.40;3.67;;;;;;;;;;5096456;27;20043;-76
2023/10/06 11:08:00;;;;;;;13.02;4.40;;;;;;;;;;5097087;28;20126;-76
2023/10/06 11:10:26;;;;;;;10.77;4.03;;;;;;;;;;5112628;28;20126;-75
2023/10/06 11:13:11;;;;;;;13.98;4.57;;;;;;;;;;5096479;28;20047;-76
2023/10/06 11:15:37;;;;;;;11.30;4.00;;;;;;;;;;5113177;28;20043;-76
2023/10/06 11:18:06;;;;;;;8.57;4.18;;;;;;;;;;5114609;28;20043;-75
2023/10/06 11:20:36;;;;;;;12.60;4.63;;;;;;;;;;5097173;28;20118;-76
2023/10/06 11:23:03;;;;;;;11.18;4.22;;;;;;;;;;5113531;28;20047;-76
2023/10/06 11:25:32;;;;;;;9.52;4.32;;;;;;;;;;5110701;28;20047;-76
2023/10/06 11:28:00;;;;;;;14.38;4.88;;;;;;;;;;5113778;28;20116;-77
2023/10/06 11:30:28;;;;;;;14.35;4.60;;;;;;;;;;5110773;28;20075;-80
2023/10/06 11:32:56;;;;;;;12.05;3.60;;;;;;;;;;5088176;28;20088;-76
2023/10/06 11:35:23;;;;;;;13.43;3.88;;;;;;;;;;5114174;28;20122;-76
2023/10/06 11:37:49;;;;;;;12.93;4.65;;;;;;;;;;5112673;27;20523;-75
2023/10/06 11:40:16;;;;;;;11.13;4.03;;;;;;;;;;5113867;28;20168;-75
2023/10/06 11:42:43;;;;;;;11.50;4.60;;;;;;;;;;5114241;28;20050;-76
2023/10/06 11:45:27;;;;;;;13.45;4.63;;;;;;;;;;5111257;28;20047;-75
2023/10/06 11:47:53;;;;;;;13.18;4.88;;;;;;;;;;5113557;27;20054;-77
2023/10/06 11:50:32;;;;;;;12.27;4.30;;;;;;;;;;5113165;28;20047;-74
2023/10/06 11:53:01;;;;;;;13.77;4.32;;;;;;;;;;5112203;28;20076;-74
2023/10/06 11:55:33;;;;;;;14.98;4.00;;;;;;;;;;5112693;28;20066;-79
2023/10/06 11:58:10;;;;;;;10.80;4.47;;;;;;;;;;5089526;28;20044;-74
2023/10/06 12:00:45;;;;;;;11.32;4.40;;;;;;;;;;5113243;27;20054;-73
2023/10/06 12:03:11;;;;;;;11.73;4.45;;;;;;;;;;5116424;27;20055;-76
2023/10/06 12:05:41;;;;;;;15.27;4.30;;;;;;;;;;5114400;28;20067;-74
2023/10/06 12:08:12;;;;;;;14.52;4.63;;;;;;;;;;5092883;28;20040;-76
2023/10/06 12:10:51;;;;;;;14.27;4.30;;;;;;;;;;5092414;28;20063;-75
2023/10/06 12:13:20;;;;;;;14.20;5.78;;;;;;;;;;5112604;28;20130;-75
2023/10/06 12:15:47;;;;;;;16.67;4.65;;;;;;;;;;5096475;28;20395;-74
2023/10/06 12:18:16;;;;;;;12.18;4.57;;;;;;;;;;5096949;28;20054;-75
2023/10/06 12:20:42;;;;;;;13.15;4.32;;;;;;;;;;5113042;28;20037;-75
2023/10/06 12:23:10;;;;;;;11.70;3.95;;;;;;;;;;5096962;27;20074;-74
2023/10/06 12:25:36;;;;;;;9.15;3.72;;;;;;;;;;5114524;27;20496;-74
2023/10/06 12:28:03;;;;;;;13.55;3.92;;;;;;;;;;5100085;27;20043;-75
2023/10/06 12:30:29;;;;;;;16.95;4.22;;;;;;;;;;5115080;27;20043;-74
2023/10/06 12:32:55;;;;;;;15.65;3.83;;;;;;;;;;5100194;27;20144;-74
2023/10/06 12:35:21;;;;;;;11.90;4.45;;;;;;;;;;5113556;28;20040;-74
2023/10/06 12:37:48;;;;;;;11.13;3.55;;;;;;;;;;5096582;27;20107;-76
2023/10/06 12:40:15;;;;;;;12.32;4.18;;;;;;;;;;5086112;27;20073;-75
2023/10/06 12:42:42;;;;;;;10.15;4.10;;;;;;;;;;5114668;27;20051;-75
2023/10/06 12:45:12;;;;;;;12.52;4.10;;;;;;;;;;5116921;27;20035;-78
2023/10/06 12:47:38;;;;;;;11.95;3.97;;;;;;;;;;5099723;27;20039;-76
2023/10/06 12:50:06;;;;;;;11.07;3.95;;;;;;;;;;5112523;28;20047;-75
2023/10/06 12:52:36;;;;;;;10.77;4.38;;;;;;;;;;5112946;28;20507;-76
2023/10/06 12:55:10;;;;;;;13.85;4.43;;;;;;;;;;5095219;28;20075;-74
2023/10/06 12:57:40;;;;;;;10.52;4.20;;;;;;;;;;5100775;28;20151;-75
2023/10/06 13:00:09;;;;;;;13.85;4.40;;;;;;;;;;5113413;28;20047;-75
2023/10/06 13:02:36;;;;;;;14.43;4.10;;;;;;;;;;5095875;28;20043;-77
2023/10/06 13:05:13;;;;;;;15.18;4.40;;;;;;;;;;5096170;28;20385;-74
2023/10/06 13:07:39;;;;;;;11.48;4.13;;;;;;;;;;5112457;28;20504;-78
2023/10/06 13:10:06;;;;;;;10.43;4.70;;;;;;;;;;5083308;28;20198;-75
2023/10/06 13:12:33;;;;;;;13.93;4.18;;;;;;;;;;5111983;28;20114;-74
2023/10/06 13:15:02;;;;;;;10.82;3.80;;;;;;;;;;5095913;28;20040;-74
2023/10/06 13:17:28;;;;;;;11.63;4.07;;;;;;;;;;5112250;28;20043;-75
2023/10/06 13:19:55;;;;;;;14.00;4.20;;;;;;;;;;5105606;27;20051;-74
2023/10/06 13:22:25;;;;;;;12.68;3.80;;;;;;;;;;5109533;28;20043;-74
2023/10/06 13:24:51;;;;;;;10.70;3.92;;;;;;;;;;5087234;28;20043;-74
2023/10/06 13:27:17;;;;;;;12.75;3.85;;;;;;;;;;5095120;28;20518;-74
2023/10/06 13:29:43;;;;;;;11.43;3.60;;;;;;;;;;5112348;28;20059;-74
2023/10/06 13:32:11;;;;;;;18.02;3.80;;;;;;;;;;5112861;28;20461;-75
2023/10/06 13:34:37;;;;;;;12.82;4.18;;;;;;;;;;5112347;28;20089;-78
2023/10/06 13:37:03;;;;;;;15.27;4.10;;;;;;;;;;5112111;28;20036;-73
2023/10/06 13:39:29;;;;;;;12.77;3.72;;;;;;;;;;5095246;28;20438;-75
2023/10/06 13:41:56;;;;;;;19.95;4.60;;;;;;;;;;5073126;28;20044;-74
2023/10/06 13:44:22;;;;;;;10.55;4.10;;;;;;;;;;5110628;28;20081;-74
2023/10/06 13:46:48;;;;;;;14.68;4.57;;;;;;;;;;5095175;28;20052;-74
2023/10/06 13:49:15;;;;;;;16.15;4.05;;;;;;;;;;5077508;28;20047;-74
2023/10/06 13:51:41;;;;;;;16.38;3.90;;;;;;;;;;5094498;28;20086;-74
2023/10/06 13:54:07;;;;;;;11.85;4.22;;;;;;;;;;5111681;28;20040;-74
2023/10/06 13:56:36;;;;;;;;;;;;;;;;;;5095544;28;20088;-74
2023/10/06 13:59:03;;;;;;;10.68;3.72;;;;;;;;;;5111307;28;19927;-74
2023/10/06 14:01:30;;;;;;;12.65;4.45;;;;;;;;;;5109232;28;20047;-74
2023/10/06 14:03:57;;;;;;;15.30;5.18;;;;;;;;;;5094239;28;20039;-74
2023/10/06 14:06:23;;;;;;;11.45;3.90;;;;;;;;;;5112183;28;20052;-74
2023/10/06 14:08:49;;;;;;;14.93;4.43;;;;;;;;;;5107476;28;20044;-74
2023/10/06 14:11:15;;;;;;;14.80;4.22;;;;;;;;;;5103459;28;20085;-74
2023/10/06 14:13:44;;;;;;;9.38;3.60;;;;;;;;;;5109920;28;20036;-78
2023/10/06 14:16:10;;;;;;;11.23;4.07;;;;;;;;;;5111196;28;20517;-75
2023/10/06 14:18:38;;;;;;;13.93;3.80;;;;;;;;;;5111297;28;20054;-73
2023/10/06 14:21:09;;;;;;;13.40;3.95;;;;;;;;;;5087142;28;20040;-75
2023/10/06 14:23:40;;;;;;;11.65;3.78;;;;;;;;;;5083097;28;20480;-77
2023/10/06 14:26:10;;;;;;;11.20;3.53;;;;;;;;;;5107749;28;20051;-75
2023/10/06 14:28:36;;;;;;;10.98;3.47;;;;;;;;;;5085556;28;20059;-76
2023/10/06 14:31:16;;;;;;;12.18;3.33;;;;;;;;;;5102030;28;20672;-73
2023/10/06 14:33:47;;;;;;;12.88;3.25;;;;;;;;;;5100935;28;20516;-77
2023/10/06 14:46:33;;;;;;;12.13;3.60;;;;;;;;;;5124596;27;19924;-74
2023/10/06 14:49:03;;;;;;;12.55;3.40;;;;;;;;;;5081228;28;20101;-74
2023/10/06 14:51:30;;;;;;;9.88;3.72;;;;;;;;;;5091103;28;20055;-74
2023/10/06 14:53:57;;;;;;;12.50;3.30;;;;;;;;;;5084180;28;20051;-74
2023/10/06 14:56:24;;;;;;;11.00;3.28;;;;;;;;;;5100812;28;20040;-74
2023/10/06 14:58:54;;;;;;;12.93;3.50;;;;;;;;;;5108065;28;20040;-74